Time;durP1;ratioP1;P1;durP2;ratioP2;P2;SDS_P1;SDS_P2;PMS_P1;PMS_P2;Temp;Humidity;BMP_temperature;BMP_pressure;BME280_temperature;BME280_humidity;BME280_pressure;Samples;Min_cycle;Max_cycle;Signal;HPM_P1;HPM_P2
2021/06/01 00:01:48;;;;;;;9.90;9.10;;;13.90;99.90;;;;;;5071379;28;20548;-65
2021/06/01 00:04:15;;;;;;;10.87;7.70;;;13.90;99.90;;;;;;5071353;28;20213;-65
2021/06/01 00:06:41;;;;;;;8.37;7.77;;;13.90;99.90;;;;;;5071559;28;20589;-65
2021/06/01 00:09:14;;;;;;;9.57;8.80;;;14.00;99.90;;;;;;5071410;28;20228;-65
2021/06/01 00:11:40;;;;;;;8.43;7.63;;;14.10;99.90;;;;;;5071229;28;20162;-65
2021/06/01 00:14:07;;;;;;;8.67;8.07;;;14.20;99.90;;;;;;5071309;28;20588;-65
2021/06/01 00:16:34;;;;;;;8.60;8.00;;;14.20;99.90;;;;;;5071658;28;20268;-65
2021/06/01 00:19:00;;;;;;;9.27;8.37;;;14.20;99.90;;;;;;5071286;28;20169;-65
2021/06/01 00:21:26;;;;;;;8.40;7.80;;;14.10;99.90;;;;;;5053257;28;20185;-66
2021/06/01 00:23:54;;;;;;;9.53;8.53;;;14.10;99.90;;;;;;5071062;28;20225;-65
2021/06/01 00:26:21;;;;;;;9.33;8.63;;;14.10;99.90;;;;;;5071424;28;20209;-65
2021/06/01 00:28:47;;;;;;;8.67;8.13;;;14.00;99.90;;;;;;5071359;28;20249;-65
2021/06/01 00:31:13;;;;;;;9.33;8.53;;;14.10;99.90;;;;;;5071223;28;20245;-66
2021/06/01 00:33:39;;;;;;;11.07;10.33;;;14.00;99.90;;;;;;5071079;28;20713;-65
2021/06/01 00:36:06;;;;;;;9.43;8.63;;;13.90;99.90;;;;;;5071496;28;20174;-65
2021/06/01 00:38:31;;;;;;;9.93;8.97;;;13.80;99.90;;;;;;5071475;28;20190;-65
2021/06/01 00:40:57;;;;;;;10.10;9.10;;;13.70;99.90;;;;;;5070706;28;20687;-64
2021/06/01 00:43:23;;;;;;;10.23;9.33;;;13.60;99.90;;;;;;5071254;28;20190;-65
2021/06/01 00:45:49;;;;;;;8.60;7.90;;;13.50;99.90;;;;;;5070947;28;20225;-65
2021/06/01 00:48:15;;;;;;;9.80;8.00;;;13.40;99.90;;;;;;5071481;28;20231;-65
2021/06/01 00:50:40;;;;;;;9.70;8.27;;;13.40;99.90;;;;;;5071413;28;20170;-65
2021/06/01 00:53:07;;;;;;;8.73;8.03;;;13.40;99.90;;;;;;5075221;28;20200;-65
2021/06/01 00:55:34;;;;;;;9.33;8.50;;;13.40;99.90;;;;;;5075101;28;20655;-65
2021/06/01 00:58:00;;;;;;;8.53;7.87;;;13.40;99.90;;;;;;5074909;28;20223;-64
2021/06/01 01:02:55;;;;;;;8.57;7.87;;;13.40;99.90;;;;;;5075118;28;20261;-65
2021/06/01 01:05:24;;;;;;;8.90;8.13;;;13.40;99.90;;;;;;5074709;28;20194;-65
2021/06/01 01:08:06;;;;;;;9.17;8.47;;;13.30;99.90;;;;;;5074929;28;20162;-65
2021/06/01 01:10:36;;;;;;;8.30;7.57;;;13.40;99.90;;;;;;5074431;28;20175;-65
2021/06/01 01:13:05;;;;;;;9.27;8.57;;;13.40;99.90;;;;;;5074896;28;20174;-65
2021/06/01 01:15:32;;;;;;;9.03;8.33;;;13.30;99.90;;;;;;5074755;28;20214;-65
2021/06/01 01:18:03;;;;;;;8.97;8.20;;;13.30;99.90;;;;;;5074865;28;20706;-65
2021/06/01 01:20:29;;;;;;;8.50;7.70;;;13.20;99.90;;;;;;5074195;28;20184;-65
2021/06/01 01:22:56;;;;;;;8.30;7.73;;;13.20;99.90;;;;;;5074462;28;20178;-65
2021/06/01 01:25:46;;;;;;;8.60;7.90;;;13.20;99.90;;;;;;5074547;28;20615;-65
2021/06/01 01:28:44;;;;;;;8.23;7.63;;;13.20;99.90;;;;;;5073806;28;20202;-65
2021/06/01 01:31:31;;;;;;;8.00;7.50;;;13.10;99.90;;;;;;5074387;28;20570;-65
2021/06/01 01:33:59;;;;;;;8.73;8.03;;;13.00;99.90;;;;;;5073986;28;20585;-65
2021/06/01 01:36:26;;;;;;;8.47;7.97;;;13.00;99.90;;;;;;5074530;28;20167;-65
2021/06/01 01:38:53;;;;;;;8.50;7.87;;;13.00;99.90;;;;;;5074124;28;20202;-65
2021/06/01 01:41:20;;;;;;;7.77;7.20;;;12.90;99.90;;;;;;5074085;28;20174;-65
2021/06/01 01:43:52;;;;;;;8.47;7.67;;;12.90;99.90;;;;;;5074031;28;20272;-65
2021/06/01 01:46:31;;;;;;;8.83;8.03;;;12.90;99.90;;;;;;5074513;28;20589;-65
2021/06/01 01:49:01;;;;;;;8.23;7.63;;;12.90;99.90;;;;;;5073882;28;20189;-65
2021/06/01 01:51:32;;;;;;;8.10;7.40;;;12.80;99.90;;;;;;5074004;28;20190;-65
2021/06/01 01:54:01;;;;;;;8.20;7.60;;;12.80;99.90;;;;;;5073854;28;20201;-66
2021/06/01 01:56:35;;;;;;;7.97;7.40;;;12.80;99.90;;;;;;5074141;28;20644;-65
2021/06/01 01:59:01;;;;;;;8.50;7.80;;;12.80;99.90;;;;;;5056270;28;20701;-65
2021/06/01 02:01:31;;;;;;;7.87;7.27;;;12.80;99.90;;;;;;5073765;28;20166;-65
2021/06/01 02:03:57;;;;;;;8.33;7.73;;;12.70;99.90;;;;;;5072814;28;20194;-65
2021/06/01 02:06:23;;;;;;;7.70;7.10;;;12.70;99.90;;;;;;5074546;28;20205;-68
2021/06/01 02:08:48;;;;;;;7.67;7.17;;;12.60;99.90;;;;;;5075014;28;20190;-70
2021/06/01 02:11:14;;;;;;;7.47;6.87;;;12.60;99.90;;;;;;5075267;28;20170;-68
2021/06/01 02:13:45;;;;;;;7.90;7.30;;;12.60;99.90;;;;;;5075058;28;20198;-70
2021/06/01 02:16:11;;;;;;;7.83;7.33;;;12.60;99.90;;;;;;5075046;28;20217;-70
2021/06/01 02:18:36;;;;;;;7.60;7.10;;;12.60;99.90;;;;;;5075140;28;20637;-70
2021/06/01 02:21:18;;;;;;;7.80;7.27;;;12.60;99.90;;;;;;5074025;28;20259;-70
2021/06/01 02:23:48;;;;;;;7.87;7.27;;;12.60;99.90;;;;;;5075022;28;20194;-71
2021/06/01 02:26:55;;;;;;;8.67;7.97;;;12.50;99.90;;;;;;5075119;28;20198;-71
2021/06/01 02:30:00;;;;;;;9.43;7.73;;;12.50;99.90;;;;;;5074492;28;20521;-72
2021/06/01 02:32:39;;;;;;;8.80;8.20;;;12.50;99.90;;;;;;5057226;28;20226;-70
2021/06/01 02:35:08;;;;;;;8.47;7.67;;;12.40;99.90;;;;;;5074387;28;20221;-69
2021/06/01 02:37:40;;;;;;;8.47;7.87;;;12.40;99.90;;;;;;5074982;28;20171;-68
2021/06/01 02:40:08;;;;;;;9.07;8.47;;;12.30;99.90;;;;;;5074467;28;20182;-68
2021/06/01 02:42:34;;;;;;;8.90;8.27;;;12.30;99.90;;;;;;5073932;28;20249;-70
2021/06/01 02:45:00;;;;;;;9.17;7.70;;;12.30;99.90;;;;;;5075936;28;20581;-70
2021/06/01 02:47:26;;;;;;;8.30;7.57;;;12.20;99.90;;;;;;5076651;28;20201;-70
2021/06/01 02:49:54;;;;;;;8.17;7.67;;;12.20;99.90;;;;;;5057908;28;20170;-69
2021/06/01 02:52:20;;;;;;;8.60;8.10;;;12.10;99.90;;;;;;5076583;28;20249;-70
2021/06/01 02:54:47;;;;;;;8.50;8.00;;;12.10;99.90;;;;;;5076123;28;20351;-67
2021/06/01 02:57:12;;;;;;;9.00;8.30;;;12.00;99.90;;;;;;5074510;28;20253;-69
2021/06/01 02:59:40;;;;;;;8.10;7.43;;;12.00;99.90;;;;;;5075565;28;20217;-71
2021/06/01 03:02:06;;;;;;;10.23;9.47;;;12.00;99.90;;;;;;5075727;28;20174;-69
2021/06/01 03:04:33;;;;;;;8.13;7.53;;;11.90;99.90;;;;;;5057369;28;20575;-72
2021/06/01 03:07:01;;;;;;;8.90;8.20;;;11.90;99.90;;;;;;5074324;28;20291;-71
2021/06/01 03:09:27;;;;;;;8.63;8.00;;;11.80;99.90;;;;;;5055244;28;20670;-69
2021/06/01 03:11:53;;;;;;;7.97;7.47;;;11.80;99.90;;;;;;5073482;28;20170;-68
2021/06/01 03:14:20;;;;;;;8.70;7.83;;;11.70;99.90;;;;;;5072241;28;20217;-71
2021/06/01 03:16:46;;;;;;;8.40;7.60;;;11.80;99.90;;;;;;5073263;28;20173;-68
2021/06/01 03:19:12;;;;;;;8.07;7.40;;;11.90;99.90;;;;;;5073690;28;20170;-70
2021/06/01 03:21:39;;;;;;;8.40;7.70;;;11.90;99.90;;;;;;5072647;28;20177;-67
2021/06/01 03:24:05;;;;;;;7.97;7.47;;;11.90;99.90;;;;;;5055830;28;20532;-69
2021/06/01 03:26:30;;;;;;;8.20;7.23;;;12.00;99.90;;;;;;5074059;28;20206;-69
2021/06/01 03:28:56;;;;;;;8.53;7.73;;;12.10;99.90;;;;;;5073423;28;20178;-69
2021/06/01 03:31:22;;;;;;;8.03;7.23;;;12.00;99.90;;;;;;5055412;28;20170;-69
2021/06/01 03:33:51;;;;;;;7.30;6.87;;;12.10;99.90;;;;;;5072895;28;20190;-69
2021/06/01 03:36:17;;;;;;;7.50;7.00;;;12.10;99.90;;;;;;5073188;28;20174;-69
2021/06/01 03:38:43;;;;;;;8.47;7.77;;;12.10;99.90;;;;;;5054907;28;20240;-68
2021/06/01 03:41:08;;;;;;;8.17;7.50;;;12.10;99.90;;;;;;5074007;28;20635;-69
2021/06/01 03:43:34;;;;;;;8.10;7.33;;;12.10;99.90;;;;;;5073905;28;20201;-69
2021/06/01 03:46:00;;;;;;;8.50;7.90;;;12.00;99.90;;;;;;5072884;28;20194;-67
2021/06/01 03:48:25;;;;;;;7.83;7.37;;;12.00;99.90;;;;;;5072752;28;20584;-70
2021/06/01 03:50:51;;;;;;;7.83;7.17;;;12.00;99.90;;;;;;5072871;28;20171;-70
2021/06/01 03:53:17;;;;;;;7.67;7.17;;;12.00;99.90;;;;;;5073572;28;20170;-67
2021/06/01 03:55:43;;;;;;;10.87;7.87;;;12.10;99.90;;;;;;5073525;28;20223;-70
2021/06/01 03:58:09;;;;;;;7.73;7.03;;;12.20;99.90;;;;;;5053644;28;20532;-66
2021/06/01 04:00:35;;;;;;;7.97;7.30;;;12.20;99.90;;;;;;5071516;28;20194;-64
2021/06/01 04:03:01;;;;;;;8.57;7.77;;;12.30;99.90;;;;;;5071489;28;20189;-64
2021/06/01 04:05:27;;;;;;;7.97;7.43;;;12.50;99.90;;;;;;5071700;28;20699;-64
2021/06/01 04:07:53;;;;;;;7.90;7.33;;;12.60;99.90;;;;;;5071330;28;20263;-65
2021/06/01 04:10:18;;;;;;;8.43;7.73;;;12.90;99.90;;;;;;5071326;28;20174;-64
2021/06/01 04:12:44;;;;;;;7.90;7.30;;;13.10;99.90;;;;;;5071627;28;20170;-64
2021/06/01 04:15:10;;;;;;;8.77;8.03;;;13.40;99.90;;;;;;5071528;28;20682;-64
2021/06/01 04:17:36;;;;;;;8.37;7.63;;;13.60;99.90;;;;;;5071643;28;20178;-64
2021/06/01 04:20:05;;;;;;;8.90;7.93;;;13.90;99.90;;;;;;5051972;28;20547;-64
2021/06/01 04:22:30;;;;;;;9.10;8.40;;;14.20;99.90;;;;;;5071625;28;20689;-65
2021/06/01 04:24:56;;;;;;;9.57;8.80;;;14.30;99.90;;;;;;5071249;28;20198;-65
2021/06/01 04:27:21;;;;;;;8.00;7.23;;;14.60;99.90;;;;;;5113277;22;20232;-63
2021/06/01 04:29:47;;;;;;;8.80;8.00;;;14.80;99.90;;;;;;5091088;28;20254;-65
2021/06/01 04:32:13;;;;;;;8.20;7.40;;;15.10;99.90;;;;;;5091428;28;20169;-63
2021/06/01 04:34:38;;;;;;;8.30;7.73;;;15.40;99.90;;;;;;5091453;28;20203;-64
2021/06/01 04:37:04;;;;;;;8.73;8.13;;;15.60;99.90;;;;;;5091469;28;20193;-64
2021/06/01 04:39:31;;;;;;;8.83;7.97;;;15.80;99.90;;;;;;5080677;28;20174;-64
2021/06/01 04:41:57;;;;;;;8.53;7.73;;;15.80;99.90;;;;;;5053134;28;20186;-64
2021/06/01 04:44:23;;;;;;;8.37;7.67;;;15.90;99.90;;;;;;5080219;28;20204;-64
2021/06/01 04:46:50;;;;;;;8.87;8.17;;;16.00;99.90;;;;;;5091304;28;20341;-65
2021/06/01 04:49:16;;;;;;;8.90;8.10;;;16.00;99.90;;;;;;5083965;28;20243;-64
2021/06/01 04:51:41;;;;;;;8.40;7.80;;;16.20;99.90;;;;;;5071102;28;20166;-64
2021/06/01 04:54:07;;;;;;;7.70;7.13;;;16.40;99.90;;;;;;5076390;28;20170;-65
2021/06/01 04:56:32;;;;;;;10.30;9.60;;;16.60;99.90;;;;;;5091430;28;20255;-64
2021/06/01 04:58:58;;;;;;;9.10;8.50;;;16.80;99.90;;;;;;5087660;28;20221;-65
2021/06/01 05:01:24;;;;;;;8.83;8.03;;;17.00;99.90;;;;;;5070908;28;20186;-65
2021/06/01 05:03:51;;;;;;;7.83;7.23;;;17.20;99.90;;;;;;5072719;28;20182;-65
2021/06/01 05:06:17;;;;;;;9.73;8.50;;;17.30;99.90;;;;;;5091169;28;20224;-65
2021/06/01 05:08:43;;;;;;;8.93;8.13;;;17.40;99.90;;;;;;5090938;28;20166;-65
2021/06/01 05:11:09;;;;;;;8.73;8.03;;;17.50;99.90;;;;;;5070760;28;20281;-64
2021/06/01 05:13:34;;;;;;;9.07;8.30;;;17.70;99.90;;;;;;5070989;28;20245;-65
2021/06/01 05:16:00;;;;;;;8.00;7.30;;;17.90;99.90;;;;;;5088870;28;20201;-65
2021/06/01 05:18:26;;;;;;;8.00;7.22;;;18.10;99.90;;;;;;5091102;28;20244;-64
2021/06/01 05:20:51;;;;;;;9.23;8.27;;;18.30;99.90;;;;;;5073292;28;20188;-64
2021/06/01 05:23:17;;;;;;;10.80;9.82;;;18.40;99.90;;;;;;5082258;28;20180;-64
2021/06/01 05:25:46;;;;;;;9.85;8.57;;;18.50;99.90;;;;;;5072061;28;20283;-66
2021/06/01 05:28:12;;;;;;;8.88;7.97;;;18.80;99.90;;;;;;5080769;28;20189;-64
2021/06/01 05:30:49;;;;;;;10.52;9.57;;;19.00;99.90;;;;;;5090758;28;20173;-64
2021/06/01 05:33:22;;;;;;;9.73;8.93;;;19.20;99.90;;;;;;5080984;28;20220;-65
2021/06/01 05:35:54;;;;;;;8.77;8.05;;;19.30;99.90;;;;;;5085611;28;20197;-65
2021/06/01 05:38:24;;;;;;;10.55;9.75;;;19.60;99.90;;;;;;5082567;28;20178;-65
2021/06/01 05:40:51;;;;;;;9.68;8.68;;;19.70;99.90;;;;;;5063581;28;20175;-64
2021/06/01 05:43:17;;;;;;;9.63;8.75;;;19.90;99.90;;;;;;5071752;28;20188;-66
2021/06/01 05:45:43;;;;;;;10.10;9.30;;;19.90;99.90;;;;;;5094118;28;20212;-65
2021/06/01 05:48:11;;;;;;;11.45;10.52;;;19.80;99.90;;;;;;5087312;28;20166;-66
2021/06/01 05:50:37;;;;;;;9.40;8.50;;;20.10;99.90;;;;;;5073865;28;20166;-64
2021/06/01 05:53:04;;;;;;;10.93;10.13;;;20.30;99.90;;;;;;5074827;28;20206;-65
2021/06/01 05:55:30;;;;;;;11.65;10.30;;;20.60;99.90;;;;;;5083050;28;20665;-64
2021/06/01 05:57:56;;;;;;;8.95;8.18;;;20.80;99.90;;;;;;5090487;28;20182;-64
2021/06/01 06:00:23;;;;;;;9.40;8.70;;;21.00;99.90;;;;;;5073454;28;20249;-66
2021/06/01 06:02:49;;;;;;;9.05;8.35;;;20.80;99.90;;;;;;5075587;28;20170;-65
2021/06/01 06:05:15;;;;;;;7.88;7.28;;;21.00;99.90;;;;;;5093993;28;20180;-65
2021/06/01 06:07:41;;;;;;;13.90;7.80;;;21.10;99.90;;;;;;5093658;28;20193;-65
2021/06/01 06:10:08;;;;;;;9.70;8.90;;;21.10;99.90;;;;;;5084578;28;20634;-65
2021/06/01 06:12:34;;;;;;;9.18;8.43;;;20.90;99.90;;;;;;5093790;28;20707;-65
2021/06/01 06:15:01;;;;;;;9.20;8.43;;;20.80;99.90;;;;;;5074659;28;20225;-64
2021/06/01 06:18:06;;;;;;;8.18;7.57;;;20.80;99.90;;;;;;5073815;28;20690;-64
2021/06/01 06:20:33;;;;;;;7.57;7.00;;;20.80;99.90;;;;;;5002638;28;20614;-65
2021/06/01 06:23:00;;;;;;;7.03;6.43;;;21.20;99.90;;;;;;5055002;28;20175;-65
2021/06/01 06:25:26;;;;;;;7.97;7.07;;;21.40;99.90;;;;;;5093581;28;20264;-65
2021/06/01 06:27:54;;;;;;;8.48;7.68;;;21.60;99.90;;;;;;5093375;28;20258;-65
2021/06/01 06:30:21;;;;;;;7.90;7.20;;;21.70;99.90;;;;;;5091562;28;20170;-65
2021/06/01 06:32:46;;;;;;;8.30;7.50;;;21.70;99.90;;;;;;5089089;28;20171;-65
2021/06/01 06:35:12;;;;;;;8.98;7.03;;;21.70;99.90;;;;;;5073275;28;20166;-65
2021/06/01 06:37:38;;;;;;;7.65;7.03;;;21.60;99.90;;;;;;5075311;28;20197;-65
2021/06/01 06:40:07;;;;;;;8.32;7.63;;;21.50;99.90;;;;;;5093038;28;20169;-65
2021/06/01 06:42:33;;;;;;;8.32;7.47;;;21.80;99.90;;;;;;5092137;28;20185;-65
2021/06/01 06:44:59;;;;;;;6.55;6.15;;;22.20;99.90;;;;;;5092685;28;20169;-64
2021/06/01 06:47:55;;;;;;;6.30;5.90;;;22.50;99.90;;;;;;5093087;28;20223;-65
2021/06/01 06:50:22;;;;;;;6.97;6.38;;;22.60;99.90;;;;;;5052294;28;20171;-65
2021/06/01 06:52:48;;;;;;;5.80;5.32;;;22.80;99.90;;;;;;5056154;28;20170;-65
2021/06/01 06:55:14;;;;;;;6.95;6.32;;;22.50;99.90;;;;;;5092985;28;20178;-64
2021/06/01 06:57:41;;;;;;;6.90;6.30;;;22.40;99.90;;;;;;5092626;28;20186;-65
2021/06/01 07:00:27;;;;;;;10.55;6.22;;;22.50;99.90;;;;;;5072431;28;20177;-65
2021/06/01 07:02:53;;;;;;;6.57;6.07;;;22.70;99.90;;;;;;5073352;28;20174;-65
2021/06/01 07:05:20;;;;;;;9.60;6.90;;;22.60;99.90;;;;;;5086632;28;20754;-64
2021/06/01 07:07:48;;;;;;;6.13;5.63;;;22.80;99.90;;;;;;5072391;28;20228;-64
2021/06/01 07:10:15;;;;;;;6.43;5.82;;;23.10;99.90;;;;;;5072300;28;20186;-65
2021/06/01 07:12:43;;;;;;;6.97;6.43;;;23.20;99.90;;;;;;5072403;28;20544;-65
2021/06/01 07:15:14;;;;;;;6.18;5.68;;;23.40;99.90;;;;;;5090745;28;20208;-65
2021/06/01 07:17:42;;;;;;;8.00;6.47;;;23.30;99.90;;;;;;5092321;28;20512;-65
2021/06/01 07:20:10;;;;;;;8.02;6.20;;;23.30;99.90;;;;;;5073530;28;20189;-65
2021/06/01 07:22:36;;;;;;;7.95;7.25;;;23.70;99.90;;;;;;5081786;28;20208;-65
2021/06/01 07:25:01;;;;;;;6.53;6.03;;;24.30;99.90;;;;;;5073744;28;20266;-65
2021/06/01 07:27:28;;;;;;;7.75;7.03;;;24.80;99.90;;;;;;5084130;28;20212;-65
2021/06/01 07:29:53;;;;;;;8.60;7.20;;;25.30;99.90;;;;;;5071842;28;20628;-65
2021/06/01 07:32:20;;;;;;;6.30;5.78;;;25.60;99.90;;;;;;5077810;28;20184;-65
2021/06/01 07:34:46;;;;;;;8.30;6.00;;;25.90;99.90;;;;;;5092318;28;20907;-64
2021/06/01 07:37:11;;;;;;;7.97;4.97;;;26.10;99.90;;;;;;5090438;28;20228;-65
2021/06/01 07:39:37;;;;;;;9.98;5.80;;;26.30;99.90;;;;;;5092160;28;20181;-65
2021/06/01 07:42:04;;;;;;;7.25;6.70;;;26.30;99.90;;;;;;5088826;28;20224;-65
2021/06/01 07:44:31;;;;;;;5.63;5.13;;;26.00;99.90;;;;;;5071794;28;20582;-65
2021/06/01 07:46:57;;;;;;;6.55;5.95;;;25.60;99.90;;;;;;5072947;28;20206;-65
2021/06/01 07:49:23;;;;;;;9.93;5.72;;;25.70;99.90;;;;;;5092012;28;20170;-65
2021/06/01 07:51:48;;;;;;;9.65;6.15;;;26.10;99.90;;;;;;5091944;28;20256;-65
2021/06/01 07:54:14;;;;;;;7.10;6.20;;;26.10;99.90;;;;;;5071983;28;20183;-64
2021/06/01 07:56:39;;;;;;;7.53;6.82;;;25.80;99.90;;;;;;5071740;28;20194;-64
2021/06/01 07:59:05;;;;;;;7.05;6.53;;;25.30;99.50;;;;;;5085561;28;20187;-64
2021/06/01 08:01:31;;;;;;;6.70;6.10;;;25.10;99.90;;;;;;5091023;28;20252;-65
2021/06/01 08:03:56;;;;;;;6.88;6.38;;;25.00;99.70;;;;;;5075292;28;20231;-64
2021/06/01 08:06:29;;;;;;;7.28;6.68;;;25.40;99.90;;;;;;5071262;28;20233;-64
2021/06/01 08:08:54;;;;;;;5.80;5.20;;;25.30;98.50;;;;;;5072703;28;20174;-65
2021/06/01 08:11:20;;;;;;;8.32;7.72;;;25.60;99.90;;;;;;5071350;28;20705;-64
2021/06/01 08:13:45;;;;;;;9.05;7.68;;;26.00;99.90;;;;;;5084869;28;20223;-64
2021/06/01 08:16:11;;;;;;;7.68;7.00;;;26.40;99.90;;;;;;5091564;28;20212;-65
2021/06/01 08:18:45;;;;;;;7.72;7.13;;;26.40;99.60;;;;;;5079595;28;20174;-64
2021/06/01 08:21:14;;;;;;;9.80;8.98;;;26.40;99.90;;;;;;5070395;28;20178;-64
2021/06/01 08:23:40;;;;;;;5.95;5.43;;;26.80;99.90;;;;;;5082762;28;20173;-64
2021/06/01 08:26:06;;;;;;;7.43;6.72;;;27.20;99.90;;;;;;5091230;28;20580;-65
2021/06/01 08:28:33;;;;;;;7.50;6.88;;;27.40;99.90;;;;;;5081155;28;20615;-64
2021/06/01 08:31:00;;;;;;;7.47;6.93;;;27.60;98.20;;;;;;5081512;28;20219;-64
2021/06/01 08:33:26;;;;;;;10.45;5.95;;;27.80;99.20;;;;;;5082598;28;20174;-65
2021/06/01 08:35:52;;;;;;;8.27;7.10;;;27.80;99.90;;;;;;5071107;28;20677;-65
2021/06/01 08:38:20;;;;;;;6.10;5.78;;;27.80;98.20;;;;;;5077711;28;20178;-65
2021/06/01 08:40:51;;;;;;;7.72;5.78;;;27.80;97.30;;;;;;5090930;28;20165;-64
2021/06/01 08:43:18;;;;;;;6.60;6.00;;;27.90;95.30;;;;;;5085064;28;20170;-65
2021/06/01 08:45:49;;;;;;;6.63;5.35;;;28.00;96.80;;;;;;5077140;28;20220;-65
2021/06/01 08:48:17;;;;;;;5.93;5.43;;;28.40;97.80;;;;;;5085667;28;20175;-65
2021/06/01 08:50:47;;;;;;;6.07;5.40;;;28.50;95.10;;;;;;5070982;28;20651;-65
2021/06/01 08:53:13;;;;;;;9.38;6.82;;;28.00;93.70;;;;;;5075441;28;20195;-65
2021/06/01 08:55:39;;;;;;;8.65;8.13;;;27.70;92.30;;;;;;5091186;28;20170;-65
2021/06/01 08:58:04;;;;;;;8.15;7.45;;;27.60;94.80;;;;;;5087544;28;20177;-65
2021/06/01 09:00:30;;;;;;;9.98;9.18;;;27.80;95.90;;;;;;5070528;28;20236;-65
2021/06/01 09:03:14;;;;;;;6.38;5.78;;;28.20;93.60;;;;;;5071823;28;20170;-65
2021/06/01 09:08:46;;;;;;;5.82;5.00;;;28.00;93.90;;;;;;5084064;28;20554;-65
2021/06/01 09:22:43;;;;;;;5.20;4.65;;;28.40;90.20;;;;;;5075615;28;20542;-65
2021/06/01 09:25:21;;;;;;;6.80;6.03;;;29.10;93.00;;;;;;5070145;28;20187;-64
2021/06/01 09:27:49;;;;;;;5.50;4.85;;;29.30;83.80;;;;;;5086828;28;20205;-65
2021/06/01 09:30:35;;;;;;;7.47;6.78;;;29.30;89.00;;;;;;5094445;28;20248;-64
2021/06/01 09:33:02;;;;;;;5.25;4.80;;;29.60;84.70;;;;;;5079963;28;20178;-64
2021/06/01 09:35:53;;;;;;;6.65;5.32;;;29.70;85.50;;;;;;5074396;28;20546;-65
2021/06/01 09:38:21;;;;;;;6.22;5.75;;;29.50;81.00;;;;;;5090372;28;20184;-64
2021/06/01 09:41:00;;;;;;;5.97;5.40;;;29.20;82.20;;;;;;5074170;28;20185;-63
2021/06/01 09:43:26;;;;;;;4.97;4.68;;;29.10;82.00;;;;;;5090755;28;20207;-65
2021/06/01 09:45:52;;;;;;;5.50;5.10;;;28.60;82.10;;;;;;5094204;28;20237;-65
2021/06/01 09:48:18;;;;;;;5.60;5.30;;;28.50;81.80;;;;;;5079139;28;20205;-64
2021/06/01 09:50:51;;;;;;;5.38;5.07;;;28.70;80.90;;;;;;5073659;28;20162;-64
2021/06/01 09:53:54;;;;;;;5.70;5.30;;;28.80;81.30;;;;;;5088226;28;20597;-65
2021/06/01 09:56:11;;;;;;;5.22;4.82;;;28.70;82.30;;;;;;5090155;28;20201;-65
2021/06/01 09:58:37;;;;;;;5.40;5.10;;;28.90;77.00;;;;;;5077229;28;20276;-64
2021/06/01 10:01:06;;;;;;;5.57;5.13;;;29.00;79.50;;;;;;5055502;28;20269;-65
2021/06/01 10:03:50;;;;;;;5.25;4.90;;;29.10;82.20;;;;;;5088792;28;20224;-64
2021/06/01 10:06:17;;;;;;;7.75;5.80;;;29.10;83.90;;;;;;5093969;28;20576;-65
2021/06/01 10:08:52;;;;;;;6.22;5.90;;;29.30;79.00;;;;;;5077270;28;20178;-65
2021/06/01 10:11:18;;;;;;;7.25;6.18;;;29.70;81.80;;;;;;5073526;28;20193;-65
2021/06/01 10:13:44;;;;;;;5.63;5.22;;;30.00;79.90;;;;;;5089125;28;20539;-65
2021/06/01 10:16:16;;;;;;;5.97;5.57;;;29.90;77.50;;;;;;5093766;28;20193;-64
2021/06/01 10:18:44;;;;;;;5.20;4.80;;;29.80;81.60;;;;;;5078557;28;20170;-64
2021/06/01 10:21:14;;;;;;;6.30;5.90;;;29.90;77.40;;;;;;5073180;28;20252;-64
2021/06/01 10:23:42;;;;;;;7.72;7.25;;;29.80;75.30;;;;;;5086768;28;20264;-64
2021/06/01 10:26:13;;;;;;;5.05;4.70;;;29.50;72.50;;;;;;5094034;28;20240;-64
2021/06/01 10:28:43;;;;;;;6.22;5.82;;;29.40;73.00;;;;;;5079829;28;20174;-64
2021/06/01 10:31:11;;;;;;;5.82;5.43;;;29.60;78.90;;;;;;5073058;28;20201;-65
2021/06/01 10:33:52;;;;;;;5.88;5.53;;;30.00;77.40;;;;;;5085748;28;20260;-64
2021/06/01 10:51:04;;;;;;;7.05;6.65;;;29.00;75.20;;;;;;5093177;28;20634;-64
2021/06/01 10:53:47;;;;;;;6.85;6.45;;;28.90;75.10;;;;;;5091358;28;20212;-64
2021/06/01 10:56:13;;;;;;;8.23;6.90;;;28.90;72.50;;;;;;5074908;28;20197;-64
2021/06/01 10:58:43;;;;;;;6.18;5.78;;;29.20;74.40;;;;;;5082459;28;20178;-64
2021/06/01 11:04:30;;;;;;;9.68;7.57;;;29.40;73.70;;;;;;5084604;28;20228;-65
2021/06/01 11:07:27;;;;;;;7.70;7.30;;;29.60;77.20;;;;;;5092538;28;20628;-65
2021/06/01 11:09:48;;;;;;;7.38;6.88;;;29.80;75.90;;;;;;5073074;28;20186;-64
2021/06/01 11:12:15;;;;;;;7.95;7.43;;;30.40;72.10;;;;;;5072766;28;20216;-65
2021/06/01 11:14:41;;;;;;;6.47;6.07;;;30.50;77.60;;;;;;5089039;28;20178;-65
2021/06/01 11:17:07;;;;;;;6.07;5.50;;;30.50;74.60;;;;;;5091961;28;20701;-65
2021/06/01 11:19:58;;;;;;;5.68;5.28;;;30.40;71.90;;;;;;5076787;28;20182;-65
2021/06/01 11:33:30;;;;;;;6.90;6.38;;;29.90;67.40;;;;;;5052678;28;20270;-65
2021/06/01 11:36:06;;;;;;;6.95;6.55;;;29.80;69.30;;;;;;5050987;28;20217;-64
2021/06/01 11:39:29;;;;;;;6.85;6.35;;;29.90;68.30;;;;;;5051970;28;20721;-64
2021/06/01 11:44:28;;;;;;;6.63;6.22;;;30.20;70.40;;;;;;5002380;28;20551;-65
2021/06/01 11:47:10;;;;;;;5.20;4.80;;;30.00;67.50;;;;;;5085759;28;20284;-65
2021/06/01 11:52:28;;;;;;;6.15;5.38;;;29.80;70.20;;;;;;5080304;28;20212;-65
2021/06/01 11:54:53;;;;;;;7.68;5.85;;;29.70;72.10;;;;;;5054425;28;20688;-65
2021/06/01 11:57:41;;;;;;;6.03;5.63;;;29.90;75.50;;;;;;5079801;28;20200;-65
2021/06/01 12:03:05;;;;;;;6.22;5.72;;;30.00;69.50;;;;;;5079415;28;20601;-65
2021/06/01 12:18:59;;;;;;;4.63;4.32;;;31.20;70.60;;;;;;5084887;28;20188;-65
2021/06/01 12:21:38;;;;;;;5.97;5.68;;;31.70;68.30;;;;;;5085359;28;20174;-64
2021/06/01 12:24:11;;;;;;;6.18;5.65;;;31.20;67.00;;;;;;5071220;28;20177;-64
2021/06/01 12:26:45;;;;;;;6.82;6.38;;;31.10;69.10;;;;;;5077522;28;20224;-64
2021/06/01 12:32:14;;;;;;;5.68;5.28;;;31.00;66.90;;;;;;5081961;28;20216;-65
2021/06/01 13:19:50;;;;;;;5.40;4.90;;;32.00;64.10;;;;;;5088040;28;20267;-65
2021/06/01 13:47:12;;;;;;;5.80;5.50;;;31.50;60.00;;;;;;5086298;28;20274;-65
2021/06/01 13:49:44;;;;;;;5.72;5.30;;;31.50;58.80;;;;;;5079172;28;20173;-64
2021/06/01 13:55:07;;;;;;;4.93;4.07;;;31.40;62.90;;;;;;5087211;28;20535;-64
2021/06/01 14:00:34;;;;;;;5.30;5.00;;;31.90;61.50;;;;;;5082346;28;20788;-64
2021/06/01 14:20:06;;;;;;;9.35;8.88;;;31.90;59.00;;;;;;5060209;28;20192;-64
2021/06/01 14:28:53;;;;;;;6.15;5.85;;;32.00;57.50;;;;;;5086780;28;20185;-65
2021/06/01 15:49:41;;;;;;;5.97;5.32;;;32.40;55.80;;;;;;5092502;28;20218;-64
2021/06/01 16:14:07;;;;;;;6.20;4.93;;;32.20;55.60;;;;;;5091854;28;20169;-65
2021/06/01 16:43:44;;;;;;;5.95;5.65;;;32.40;54.80;;;;;;5090709;28;20180;-65
2021/06/01 17:05:33;;;;;;;6.00;5.50;;;31.90;54.50;;;;;;5091790;28;20670;-65
2021/06/01 17:11:19;;;;;;;5.15;4.85;;;31.60;53.50;;;;;;5090885;28;20231;-67
2021/06/01 17:13:55;;;;;;;5.97;5.47;;;31.70;55.20;;;;;;5073012;28;20176;-66
2021/06/01 17:35:20;;;;;;;7.03;6.53;;;31.60;55.40;;;;;;5094658;28;20279;-67
2021/06/01 17:37:46;;;;;;;7.68;7.13;;;31.40;55.60;;;;;;5093971;28;20185;-66
2021/06/01 17:40:15;;;;;;;5.53;5.22;;;31.50;55.90;;;;;;5094465;28;20722;-66
2021/06/01 17:42:53;;;;;;;6.90;6.50;;;31.50;55.30;;;;;;5093837;28;20178;-65
2021/06/01 17:45:22;;;;;;;5.28;4.80;;;31.50;55.70;;;;;;5094681;28;20613;-64
2021/06/01 17:47:58;;;;;;;6.15;5.47;;;31.30;56.40;;;;;;5093318;28;20290;-65
2021/06/01 17:50:25;;;;;;;5.75;5.25;;;31.40;55.40;;;;;;5076000;28;20165;-66
2021/06/01 17:52:54;;;;;;;4.97;4.57;;;31.20;55.60;;;;;;5094243;28;20166;-66
2021/06/01 17:55:22;;;;;;;5.75;5.25;;;30.90;56.00;;;;;;5094445;28;20173;-67
2021/06/01 17:57:48;;;;;;;5.13;4.63;;;31.00;56.10;;;;;;5094250;28;20567;-67
2021/06/01 18:00:16;;;;;;;4.97;4.57;;;30.90;56.50;;;;;;5094140;28;20636;-67
2021/06/01 18:02:42;;;;;;;5.18;4.68;;;30.90;56.70;;;;;;5094307;28;20170;-66
2021/06/01 18:05:09;;;;;;;5.55;5.15;;;31.00;57.10;;;;;;5094234;28;20185;-65
2021/06/01 18:07:49;;;;;;;4.60;4.30;;;30.90;56.40;;;;;;5093970;28;20212;-67
2021/06/01 19:51:21;;;;;;;6.80;6.30;;;21.80;73.30;;;;;;5092526;28;20587;-67
2021/06/01 19:53:49;;;;;;;6.80;6.30;;;21.70;72.70;;;;;;5092537;28;20664;-68
2021/06/01 19:56:15;;;;;;;8.05;7.55;;;21.60;73.30;;;;;;5091434;28;20206;-68
2021/06/01 19:58:42;;;;;;;8.07;7.53;;;21.50;77.50;;;;;;5092091;28;20174;-67
2021/06/01 20:01:09;;;;;;;7.70;7.10;;;21.40;80.30;;;;;;5085545;28;20213;-67
2021/06/01 20:03:37;;;;;;;8.63;8.02;;;21.30;78.90;;;;;;5071871;28;20188;-66
2021/06/01 20:06:06;;;;;;;7.28;6.78;;;21.10;79.70;;;;;;5071408;28;20209;-66
2021/06/01 20:08:31;;;;;;;7.50;6.95;;;21.00;82.50;;;;;;5071581;28;20173;-66
2021/06/01 20:10:58;;;;;;;8.07;7.43;;;20.90;86.00;;;;;;5071280;28;20186;-67
2021/06/01 20:13:24;;;;;;;7.97;7.38;;;20.90;87.10;;;;;;5090579;28;20307;-66
2021/06/01 20:15:50;;;;;;;9.70;9.07;;;20.70;84.30;;;;;;5089318;28;20296;-67